Time;durP1;ratioP1;P1;durP2;ratioP2;P2;SDS_P1;SDS_P2;PMS_P1;PMS_P2;Temp;Humidity;BMP_temperature;BMP_pressure;BME280_temperature;BME280_humidity;BME280_pressure;Samples;Min_cycle;Max_cycle;Signal;HPM_P1;HPM_P2
2020/12/08 00:00:15;;;;;;;;;;;;;;;;;;4975093;28;19930;-62
2020/12/08 00:02:42;;;;;;;;;;;;;;;;;;4974154;28;20367;-62
2020/12/08 00:05:09;;;;;;;;;;;;;;;;;;4975066;28;20009;-62
2020/12/08 00:07:36;;;;;;;;;;;;;;;;;;4974583;28;19926;-62
2020/12/08 00:10:04;;;;;;;;;;;;;;;;;;4974756;28;20412;-62
2020/12/08 00:12:31;;;;;;;;;;;;;;;;;;4974985;28;19948;-62
2020/12/08 00:14:58;;;;;;;;;;;;;;;;;;4974099;28;19932;-62
2020/12/08 00:17:25;;;;;;;;;;;;;;;;;;4974362;28;20314;-62
2020/12/08 00:19:52;;;;;;;;;;;;;;;;;;4974124;28;19956;-62
2020/12/08 00:22:19;;;;;;;;;;;;;;;;;;4975107;28;19926;-62
2020/12/08 00:24:46;;;;;;;;;;;;;;;;;;4973559;28;19933;-62
2020/12/08 00:27:13;;;;;;;;;;;;;;;;;;4975007;28;19936;-62
2020/12/08 00:29:40;;;;;;;;;;;;;;;;;;4975567;28;19926;-62
2020/12/08 00:32:07;;;;;;;;;;;;;;;;;;4974381;28;19937;-62
2020/12/08 00:34:34;;;;;;;;;;;;;;;;;;4975184;28;20001;-62
2020/12/08 00:37:02;;;;;;;;;;;;;;;;;;4975020;28;20002;-62
2020/12/08 00:39:29;;;;;;;;;;;;;;;;;;4974996;28;19926;-62
2020/12/08 00:41:56;;;;;;;;;;;;;;;;;;4974014;28;19936;-62
2020/12/08 00:44:23;;;;;;;;;;;;;;;;;;4973026;28;20446;-62
2020/12/08 00:46:50;;;;;;;;;;;;;;;;;;4977939;28;19948;-62
2020/12/08 00:49:17;;;;;;;;;;;;;;;;;;4975368;28;19932;-62
2020/12/08 00:51:44;;;;;;;;;;;;;;;;;;4980476;28;19930;-62
2020/12/08 00:54:11;;;;;;;;;;;;;;;;;;4974530;28;19926;-62
2020/12/08 00:56:38;;;;;;;;;;;;;;;;;;4974923;28;19926;-62
2020/12/08 00:59:05;;;;;;;;;;;;;;;;;;4975092;28;20025;-62
2020/12/08 01:01:33;;;;;;;;;;;;;;;;;;4979170;28;19926;-62
2020/12/08 01:04:00;;;;;;;;;;;;;;;;;;4974236;28;19930;-61
2020/12/08 01:06:27;;;;;;;;;;;;;;;;;;4973256;28;19926;-62
2020/12/08 01:08:54;;;;;;;;;;;;;;;;;;4974520;28;20392;-62
2020/12/08 01:11:21;;;;;;;;;;;;;;;;;;4974292;28;20013;-62
2020/12/08 01:13:48;;;;;;;;;;;;;;;;;;4974512;28;20437;-61
2020/12/08 01:16:15;;;;;;;;;;;;;;;;;;4973811;28;19936;-61
2020/12/08 01:18:42;;;;;;;;;;;;;;;;;;4971729;28;19968;-61
2020/12/08 01:21:10;;;;;;;;;;;;;;;;;;4970552;28;20386;-61
2020/12/08 01:23:37;;;;;;;;;;;;;;;;;;4973867;28;20020;-62
2020/12/08 01:26:05;;;;;;;;;;;;;;;;;;4973527;28;19936;-62
2020/12/08 01:28:32;;;;;;;;;;;;;;;;;;4974172;28;20370;-62
2020/12/08 01:30:59;;;;;;;;;;;;;;;;;;4973978;28;20399;-62
2020/12/08 01:33:27;;;;;;;;;;;;;;;;;;4973697;28;20396;-62
2020/12/08 01:35:54;;;;;;;;;;;;;;;;;;4982870;28;19948;-61
2020/12/08 01:38:21;;;;;;;;;;;;;;;;;;4974056;28;19937;-61
2020/12/08 01:40:48;;;;;;;;;;;;;;;;;;4983306;28;19936;-61
2020/12/08 01:43:15;;;;;;;;;;;;;;;;;;4983948;28;19930;-62
2020/12/08 01:45:42;;;;;;;;;;;;;;;;;;4973202;28;19926;-62
2020/12/08 01:48:09;;;;;;;;;;;;;;;;;;4973906;28;19930;-62
2020/12/08 01:50:36;;;;;;;;;;;;;;;;;;4972349;28;20333;-62
2020/12/08 01:53:03;;;;;;;;;;;;;;;;;;4973523;28;20021;-62
2020/12/08 01:55:31;;;;;;;;;;;;;;;;;;4972466;28;19926;-61
2020/12/08 01:57:58;;;;;;;;;;;;;;;;;;4973890;28;19926;-61
2020/12/08 02:00:25;;;;;;;;;;;;;;;;;;4973830;28;19926;-61
2020/12/08 02:02:52;;;;;;;;;;;;;;;;;;4966035;28;20306;-61
2020/12/08 02:05:19;;;;;;;;;;;;;;;;;;4968127;28;19926;-61
2020/12/08 02:07:46;;;;;;;;;;;;;;;;;;4973039;28;20013;-61
2020/12/08 02:10:13;;;;;;;;;;;;;;;;;;4973440;28;20021;-61
2020/12/08 02:12:41;;;;;;;;;;;;;;;;;;4972571;28;19946;-61
2020/12/08 02:15:08;;;;;;;;;;;;;;;;;;4972707;28;19926;-61
2020/12/08 02:17:35;;;;;;;;;;;;;;;;;;4973011;28;19926;-61
2020/12/08 02:20:02;;;;;;;;;;;;;;;;;;4975765;28;19929;-61
2020/12/08 02:22:29;;;;;;;;;;;;;;;;;;4986946;28;19932;-61
2020/12/08 02:24:56;;;;;;;;;;;;;;;;;;4972652;28;19952;-61
2020/12/08 02:27:23;;;;;;;;;;;;;;;;;;4973373;28;19937;-61
2020/12/08 02:29:50;;;;;;;;;;;;;;;;;;4973293;28;20388;-61
2020/12/08 02:32:18;;;;;;;;;;;;;;;;;;4974686;28;19933;-61
2020/12/08 02:34:45;;;;;;;;;;;;;;;;;;4974166;28;19932;-61
2020/12/08 02:37:12;;;;;;;;;;;;;;;;;;4975517;28;20374;-61
2020/12/08 02:39:39;;;;;;;;;;;;;;;;;;4974029;28;20453;-61
2020/12/08 02:42:06;;;;;;;;;;;;;;;;;;4972889;28;20033;-61
2020/12/08 02:44:33;;;;;;;;;;;;;;;;;;4972902;28;20354;-61
2020/12/08 02:47:00;;;;;;;;;;;;;;;;;;4972678;28;19933;-61
2020/12/08 02:49:31;;;;;;;;;;;;;;;;;;4973431;28;19926;-61
2020/12/08 02:51:58;;;;;;;;;;;;;;;;;;4971929;28;20248;-61
2020/12/08 02:54:25;;;;;;;;;;;;;;;;;;4972431;28;20297;-61
2020/12/08 02:56:53;;;;;;;;;;;;;;;;;;4973152;28;20025;-61
2020/12/08 02:59:20;;;;;;;;;;;;;;;;;;4973319;28;20016;-61
2020/12/08 03:01:47;;;;;;;;;;;;;;;;;;4972591;28;19926;-61
2020/12/08 03:04:14;;;;;;;;;;;;;;;;;;4972179;28;19933;-61
2020/12/08 03:06:41;;;;;;;;;;;;;;;;;;4972548;28;20009;-61
2020/12/08 03:09:08;;;;;;;;;;;;;;;;;;4972998;28;20009;-61
2020/12/08 03:11:35;;;;;;;;;;;;;;;;;;4979208;28;20012;-61
2020/12/08 03:14:02;;;;;;;;;;;;;;;;;;4973293;28;19968;-61
2020/12/08 03:16:29;;;;;;;;;;;;;;;;;;4971920;28;19932;-61
2020/12/08 03:18:57;;;;;;;;;;;;;;;;;;4968407;28;20074;-61
2020/12/08 03:21:24;;;;;;;;;;;;;;;;;;4971068;28;19945;-61
2020/12/08 03:23:51;;;;;;;;;;;;;;;;;;4972865;28;19926;-61
2020/12/08 03:26:18;;;;;;;;;;;;;;;;;;4971636;28;19976;-61
2020/12/08 03:28:45;;;;;;;;;;;;;;;;;;4975126;28;20414;-61
2020/12/08 03:31:12;;;;;;;;;;;;;;;;;;4976494;28;19926;-61
2020/12/08 03:33:39;;;;;;;;;;;;;;;;;;4976170;28;20017;-61
2020/12/08 03:36:07;;;;;;;;;;;;;;;;;;4975655;28;19930;-61
2020/12/08 03:38:34;;;;;;;;;;;;;;;;;;4976441;28;20009;-61
2020/12/08 03:41:01;;;;;;;;;;;;;;;;;;4976100;28;19926;-61
2020/12/08 03:43:28;;;;;;;;;;;;;;;;;;4976535;28;19932;-61
2020/12/08 03:45:55;;;;;;;;;;;;;;;;;;4974744;28;19933;-61
2020/12/08 03:48:22;;;;;;;;;;;;;;;;;;4976677;28;19930;-61
2020/12/08 03:50:49;;;;;;;;;;;;;;;;;;4975024;28;20349;-61
2020/12/08 03:53:17;;;;;;;;;;;;;;;;;;4976168;28;19926;-61
2020/12/08 03:55:44;;;;;;;;;;;;;;;;;;4975151;28;19942;-61
2020/12/08 03:58:11;;;;;;;;;;;;;;;;;;4976042;28;19932;-61
2020/12/08 04:00:38;;;;;;;;;;;;;;;;;;4987020;28;19932;-61
2020/12/08 04:03:05;;;;;;;;;;;;;;;;;;4991562;28;19926;-61
2020/12/08 04:05:32;;;;;;;;;;;;;;;;;;4974066;28;19969;-61
2020/12/08 04:07:59;;;;;;;;;;;;;;;;;;4976142;28;19930;-61
2020/12/08 04:10:26;;;;;;;;;;;;;;;;;;4975268;28;20413;-61
2020/12/08 04:12:54;;;;;;;;;;;;;;;;;;4975945;28;19930;-60
2020/12/08 04:15:21;;;;;;;;;;;;;;;;;;4975214;28;19937;-61
2020/12/08 04:18:03;;;;;;;;;;;;;;;;;;3507554;28;10021594;-61
2020/12/08 04:20:30;;;;;;;;;;;;;;;;;;2229814;28;10002107;-61
2020/12/08 04:22:57;;;;;;;;;;;;;;;;;;4973948;28;19926;-61
2020/12/08 04:25:24;;;;;;;;;;;;;;;;;;4975318;28;19934;-61
2020/12/08 04:27:52;;;;;;;;;;;;;;;;;;4975167;28;19931;-61
2020/12/08 04:30:19;;;;;;;;;;;;;;;;;;4975353;28;20028;-61
2020/12/08 04:32:46;;;;;;;;;;;;;;;;;;4975162;28;19937;-61
2020/12/08 04:35:13;;;;;;;;;;;;;;;;;;4988308;28;19929;-61
2020/12/08 04:37:40;;;;;;;;;;;;;;;;;;4986730;28;19926;-61
2020/12/08 04:40:07;;;;;;;;;;;;;;;;;;4955521;28;20307;-61
2020/12/08 04:42:34;;;;;;;;;;;;;;;;;;4956368;28;19931;-61
2020/12/08 04:45:01;;;;;;;;;;;;;;;;;;4973649;28;20282;-61
2020/12/08 04:47:28;;;;;;;;;;;;;;;;;;4975167;28;20060;-61
2020/12/08 04:49:56;;;;;;;;;;;;;;;;;;4974976;28;20025;-61
2020/12/08 04:52:23;;;;;;;;;;;;;;;;;;4974511;28;19930;-61
2020/12/08 04:54:50;;;;;;;;;;;;;;;;;;4974341;28;19926;-61
2020/12/08 04:57:17;;;;;;;;;;;;;;;;;;4975041;28;19933;-61
2020/12/08 04:59:44;;;;;;;;;;;;;;;;;;4975908;28;20414;-61
2020/12/08 05:02:11;;;;;;;;;;;;;;;;;;4976267;28;20016;-61
2020/12/08 05:04:39;;;;;;;;;;;;;;;;;;4978498;28;19926;-61
2020/12/08 05:07:06;;;;;;;;;;;;;;;;;;4975181;28;20012;-61
2020/12/08 05:09:35;;;;;;;;;;;;;;;;;;4975563;28;19985;-61
2020/12/08 05:12:03;;;;;;;;;;;;;;;;;;4974398;28;20017;-61
2020/12/08 05:14:30;;;;;;;;;;;;;;;;;;4974091;28;19950;-61
2020/12/08 05:16:57;;;;;;;;;;;;;;;;;;4973999;28;19926;-61
2020/12/08 05:19:24;;;;;;;;;;;;;;;;;;4972423;28;19937;-61
2020/12/08 05:21:51;;;;;;;;;;;;;;;;;;4974898;28;20346;-61
2020/12/08 05:24:18;;;;;;;;;;;;;;;;;;4973563;28;20288;-61
2020/12/08 05:26:45;;;;;;;;;;;;;;;;;;4974222;28;19981;-61
2020/12/08 05:29:12;;;;;;;;;;;;;;;;;;4974406;28;19936;-61
2020/12/08 05:31:39;;;;;;;;;;;;;;;;;;4973820;28;20301;-61
2020/12/08 05:34:07;;;;;;;;;;;;;;;;;;4973765;28;20061;-62
2020/12/08 05:36:34;;;;;;;;;;;;;;;;;;4974645;28;20041;-61
2020/12/08 05:39:01;;;;;;;;;;;;;;;;;;4991982;28;19929;-61
2020/12/08 05:41:28;;;;;;;;;;;;;;;;;;4989482;28;19929;-60
2020/12/08 05:43:55;;;;;;;;;;;;;;;;;;4977040;28;20330;-61
2020/12/08 05:46:23;;;;;;;;;;;;;;;;;;4973804;28;19937;-61
2020/12/08 05:48:50;;;;;;;;;;;;;;;;;;4971917;28;20293;-61
2020/12/08 05:51:17;;;;;;;;;;;;;;;;;;4974476;28;20024;-61
2020/12/08 05:53:44;;;;;;;;;;;;;;;;;;4970437;28;20017;-61
2020/12/08 05:56:11;;;;;;;;;;;;;;;;;;4970135;28;19930;-61
2020/12/08 05:58:38;;;;;;;;;;;;;;;;;;4971322;28;19969;-61
2020/12/08 06:01:05;;;;;;;;;;;;;;;;;;4969933;28;20167;-61
2020/12/08 06:03:33;;;;;;;;;;;;;;;;;;4970239;28;20032;-61
2020/12/08 06:06:00;;;;;;;;;;;;;;;;;;4968753;28;19996;-61
2020/12/08 06:08:28;;;;;;;;;;;;;;;;;;4963693;28;19926;-61
2020/12/08 06:10:57;;;;;;;;;;;;;;;;;;4970374;28;19930;-61
2020/12/08 06:13:24;;;;;;;;;;;;;;;;;;4970174;28;20267;-61
2020/12/08 06:15:51;;;;;;;;;;;;;;;;;;4969786;28;20033;-61
2020/12/08 06:18:19;;;;;;;;;;;;;;;;;;4969821;28;19932;-61
2020/12/08 06:20:46;;;;;;;;;;;;;;;;;;4964948;28;20013;-61
2020/12/08 06:23:13;;;;;;;;;;;;;;;;;;4970034;28;20021;-61
2020/12/08 06:25:40;;;;;;;;;;;;;;;;;;4970087;28;20025;-61
2020/12/08 06:28:07;;;;;;;;;;;;;;;;;;4970636;28;19930;-61
2020/12/08 06:30:34;;;;;;;;;;;;;;;;;;4970146;28;19965;-61
2020/12/08 06:33:02;;;;;;;;;;;;;;;;;;4969507;28;19930;-61
2020/12/08 06:35:29;;;;;;;;;;;;;;;;;;4970087;28;20522;-61
2020/12/08 06:38:12;;;;;;;;;;;;;;;;;;4968386;28;19930;-61
2020/12/08 06:40:39;;;;;;;;;;;;;;;;;;4978453;28;19969;-61
2020/12/08 06:43:06;;;;;;;;;;;;;;;;;;4968349;28;20131;-61
2020/12/08 06:45:33;;;;;;;;;;;;;;;;;;4968645;28;20005;-61
2020/12/08 06:48:00;;;;;;;;;;;;;;;;;;4968394;28;19926;-61
2020/12/08 06:50:28;;;;;;;;;;;;;;;;;;4969804;28;19936;-60
2020/12/08 06:52:55;;;;;;;;;;;;;;;;;;4969901;28;19930;-61
2020/12/08 06:55:22;;;;;;;;;;;;;;;;;;4969377;28;19930;-61
2020/12/08 06:57:49;;;;;;;;;;;;;;;;;;4967928;28;20068;-61
2020/12/08 07:00:17;;;;;;;;;;;;;;;;;;4969214;28;19934;-61
2020/12/08 07:02:48;;;;;;;;;;;;;;;;;;4967920;28;20033;-61
2020/12/08 07:05:15;;;;;;;;;;;;;;;;;;4952398;28;19957;-61
2020/12/08 07:07:43;;;;;;;;;;;;;;;;;;4969482;28;20013;-61
2020/12/08 07:10:14;;;;;;;;;;;;;;;;;;4969589;28;19934;-61
2020/12/08 07:12:41;;;;;;;;;;;;;;;;;;4970063;28;20341;-61
2020/12/08 07:15:08;;;;;;;;;;;;;;;;;;4969058;28;19962;-61
2020/12/08 07:17:35;;;;;;;;;;;;;;;;;;4969057;28;19930;-61
2020/12/08 07:20:04;;;;;;;;;;;;;;;;;;4970990;28;20044;-61
2020/12/08 07:22:32;;;;;;;;;;;;;;;;;;4972731;28;20012;-61
2020/12/08 07:24:59;;;;;;;;;;;;;;;;;;4969924;28;20419;-61
2020/12/08 07:27:26;;;;;;;;;;;;;;;;;;4972067;28;19937;-62
2020/12/08 07:29:54;;;;;;;;;;;;;;;;;;4970762;28;20365;-62
2020/12/08 07:32:21;;;;;;;;;;;;;;;;;;4970377;28;19960;-61
2020/12/08 07:34:49;;;;;;;;;;;;;;;;;;4967935;28;19936;-61
2020/12/08 07:37:16;;;;;;;;;;;;;;;;;;4984860;28;19976;-61
2020/12/08 07:39:43;;;;;;;;;;;;;;;;;;4977800;28;19930;-61
2020/12/08 07:42:11;;;;;;;;;;;;;;;;;;4969583;28;20271;-61
2020/12/08 07:44:38;;;;;;;;;;;;;;;;;;4968177;28;19989;-61
2020/12/08 07:47:05;;;;;;;;;;;;;;;;;;4968323;28;19965;-61
2020/12/08 07:49:32;;;;;;;;;;;;;;;;;;4969314;28;20374;-61
2020/12/08 07:51:59;;;;;;;;;;;;;;;;;;4971170;28;19934;-61
2020/12/08 07:54:27;;;;;;;;;;;;;;;;;;4971472;28;20390;-61
2020/12/08 07:56:54;;;;;;;;;;;;;;;;;;4972473;28;20402;-61
2020/12/08 07:59:21;;;;;;;;;;;;;;;;;;4972293;28;20310;-61
2020/12/08 08:01:49;;;;;;;;;;;;;;;;;;4971172;28;19930;-61
2020/12/08 08:04:16;;;;;;;;;;;;;;;;;;4971313;28;20366;-61
2020/12/08 08:06:43;;;;;;;;;;;;;;;;;;4971310;28;20366;-61
2020/12/08 08:09:10;;;;;;;;;;;;;;;;;;4971267;28;19980;-61
2020/12/08 08:11:37;;;;;;;;;;;;;;;;;;4966729;28;19926;-61
2020/12/08 08:14:05;;;;;;;;;;;;;;;;;;4971888;28;19926;-61
2020/12/08 08:16:34;;;;;;;;;;;;;;;;;;4977621;28;20770;-61
2020/12/08 08:19:01;;;;;;;;;;;;;;;;;;4969733;28;19977;-61
2020/12/08 08:21:28;;;;;;;;;;;;;;;;;;4974455;28;19926;-61
2020/12/08 08:23:58;;;;;;;;;;;;;;;;;;4975276;28;19996;-61
2020/12/08 08:26:25;;;;;;;;;;;;;;;;;;4973590;28;20005;-61
2020/12/08 08:28:52;;;;;;;;;;;;;;;;;;4959824;28;19930;-61
2020/12/08 08:31:20;;;;;;;;;;;;;;;;;;4972598;28;19973;-61
2020/12/08 08:33:47;;;;;;;;;;;;;;;;;;4975346;28;19934;-61
2020/12/08 08:36:15;;;;;;;;;;;;;;;;;;4965069;28;19930;-61
2020/12/08 08:38:43;;;;;;;;;;;;;;;;;;4973914;28;19932;-61
2020/12/08 08:41:10;;;;;;;;;;;;;;;;;;4969200;28;19933;-61
2020/12/08 08:43:37;;;;;;;;;;;;;;;;;;4971223;28;20386;-61
2020/12/08 08:46:04;;;;;;;;;;;;;;;;;;4974271;28;20026;-61
2020/12/08 08:48:32;;;;;;;;;;;;;;;;;;4970907;28;19949;-61
2020/12/08 08:50:59;;;;;;;;;;;;;;;;;;4969474;28;19930;-61
2020/12/08 08:53:26;;;;;;;;;;;;;;;;;;4973094;28;20008;-61
2020/12/08 08:55:54;;;;;;;;;;;;;;;;;;4972478;28;20291;-61
2020/12/08 08:58:21;;;;;;;;;;;;;;;;;;4971620;28;20442;-61
2020/12/08 09:00:48;;;;;;;;;;;;;;;;;;4972866;28;19973;-61
2020/12/08 09:03:15;;;;;;;;;;;;;;;;;;4971711;28;20245;-61
2020/12/08 09:05:43;;;;;;;;;;;;;;;;;;4966611;28;19937;-61
2020/12/08 09:08:11;;;;;;;;;;;;;;;;;;4952644;28;20365;-61
2020/12/08 09:10:38;;;;;;;;;;;;;;;;;;4960901;28;19930;-61
2020/12/08 09:13:05;;;;;;;;;;;;;;;;;;4966022;28;19984;-61
2020/12/08 09:15:33;;;;;;;;;;;;;;;;;;4966578;28;19980;-61
2020/12/08 09:18:04;;;;;;;;;;;;;;;;;;4966007;28;20044;-61
2020/12/08 09:20:31;;;;;;;;;;;;;;;;;;4961459;28;20460;-61
2020/12/08 09:22:59;;;;;;;;;;;;;;;;;;4965166;28;19930;-61
2020/12/08 09:25:28;;;;;;;;;;;;;;;;;;4964544;28;19930;-61
2020/12/08 09:27:55;;;;;;;;;;;;;;;;;;4965610;28;19937;-61
2020/12/08 09:30:23;;;;;;;;;;;;;;;;;;4965155;28;19929;-61
2020/12/08 09:32:50;;;;;;;;;;;;;;;;;;4965917;28;19992;-61
2020/12/08 09:35:18;;;;;;;;;;;;;;;;;;4972169;28;20334;-61
2020/12/08 09:37:45;;;;;;;;;;;;;;;;;;4971364;28;19972;-61
2020/12/08 09:40:12;;;;;;;;;;;;;;;;;;4974861;28;19973;-61
2020/12/08 09:42:40;;;;;;;;;;;;;;;;;;4971499;28;19933;-61
2020/12/08 09:45:07;;;;;;;;;;;;;;;;;;4970946;28;19930;-61
2020/12/08 09:47:34;;;;;;;;;;;;;;;;;;4971719;28;20357;-61
2020/12/08 09:50:02;;;;;;;;;;;;;;;;;;4972309;28;19930;-61
2020/12/08 09:52:29;;;;;;;;;;;;;;;;;;4967550;28;20025;-61
2020/12/08 09:54:56;;;;;;;;;;;;;;;;;;4970212;28;19926;-61
2020/12/08 09:57:24;;;;;;;;;;;;;;;;;;4973829;28;20002;-61
2020/12/08 09:59:52;;;;;;;;;;;;;;;;;;4973025;28;20386;-61
2020/12/08 10:02:20;;;;;;;;;;;;;;;;;;4961898;28;19965;-61
2020/12/08 10:04:47;;;;;;;;;;;;;;;;;;4965850;28;19933;-62
2020/12/08 10:07:17;;;;;;;;;;;;;;;;;;4969530;28;20270;-61
2020/12/08 10:09:45;;;;;;;;;;;;;;;;;;4968982;28;19985;-61
2020/12/08 10:12:12;;;;;;;;;;;;;;;;;;4971695;28;19970;-61
2020/12/08 10:14:41;;;;;;;;;;;;;;;;;;4971658;28;19977;-61
2020/12/08 10:17:08;;;;;;;;;;;;;;;;;;4972136;28;20005;-61
2020/12/08 10:19:35;;;;;;;;;;;;;;;;;;4966756;28;19926;-61
2020/12/08 10:22:03;;;;;;;;;;;;;;;;;;4972213;28;20442;-61
2020/12/08 10:24:30;;;;;;;;;;;;;;;;;;4971414;28;19985;-60
2020/12/08 10:26:58;;;;;;;;;;;;;;;;;;4971448;28;19937;-61
2020/12/08 10:29:25;;;;;;;;;;;;;;;;;;4972474;28;19935;-61
2020/12/08 10:31:52;;;;;;;;;;;;;;;;;;4971092;28;19926;-61
2020/12/08 10:34:20;;;;;;;;;;;;;;;;;;4972422;28;19927;-61
2020/12/08 10:36:47;;;;;;;;;;;;;;;;;;4971162;28;20189;-61
2020/12/08 10:39:15;;;;;;;;;;;;;;;;;;4971789;28;20337;-61
2020/12/08 10:41:42;;;;;;;;;;;;;;;;;;4972636;28;19955;-61
2020/12/08 10:44:09;;;;;;;;;;;;;;;;;;4971125;28;19926;-61
2020/12/08 10:46:37;;;;;;;;;;;;;;;;;;4971007;28;19934;-60
2020/12/08 10:49:04;;;;;;;;;;;;;;;;;;4972660;28;19937;-61
2020/12/08 10:51:31;;;;;;;;;;;;;;;;;;4975314;28;20398;-61
2020/12/08 10:53:58;;;;;;;;;;;;;;;;;;4970305;28;19926;-61
2020/12/08 10:56:26;;;;;;;;;;;;;;;;;;4971314;28;20398;-61
2020/12/08 10:58:53;;;;;;;;;;;;;;;;;;4972675;28;19930;-61
2020/12/08 11:01:20;;;;;;;;;;;;;;;;;;4968188;28;19934;-61
2020/12/08 11:03:48;;;;;;;;;;;;;;;;;;4960172;28;20337;-61
2020/12/08 11:06:15;;;;;;;;;;;;;;;;;;4960323;28;19934;-61
2020/12/08 11:08:42;;;;;;;;;;;;;;;;;;4971858;28;20020;-61
2020/12/08 11:11:10;;;;;;;;;;;;;;;;;;4972222;28;20025;-61
2020/12/08 11:13:37;;;;;;;;;;;;;;;;;;4970196;28;20390;-61
2020/12/08 11:16:04;;;;;;;;;;;;;;;;;;4965131;28;20156;-62
2020/12/08 11:18:34;;;;;;;;;;;;;;;;;;4971040;28;19934;-61
2020/12/08 11:21:02;;;;;;;;;;;;;;;;;;4967225;28;19985;-62
2020/12/08 11:23:29;;;;;;;;;;;;;;;;;;4974980;28;20398;-61
2020/12/08 11:25:56;;;;;;;;;;;;;;;;;;4973175;28;20404;-61
2020/12/08 11:28:23;;;;;;;;;;;;;;;;;;4971167;28;19969;-61
2020/12/08 11:30:50;;;;;;;;;;;;;;;;;;4972207;28;19926;-61
2020/12/08 11:33:32;;;;;;;;;;;;;;;;;;4965786;28;19933;-61
2020/12/08 11:35:59;;;;;;;;;;;;;;;;;;4971049;28;19926;-61
2020/12/08 11:38:27;;;;;;;;;;;;;;;;;;4968685;28;19998;-61
2020/12/08 11:40:57;;;;;;;;;;;;;;;;;;4983884;28;19949;-61
2020/12/08 11:43:25;;;;;;;;;;;;;;;;;;4983667;28;20270;-61
2020/12/08 11:45:52;;;;;;;;;;;;;;;;;;4978159;28;19932;-61
2020/12/08 11:48:22;;;;;;;;;;;;;;;;;;4973237;28;19930;-61
2020/12/08 11:50:49;;;;;;;;;;;;;;;;;;4972564;28;20012;-61
2020/12/08 11:53:17;;;;;;;;;;;;;;;;;;4975758;28;20238;-61
2020/12/08 11:55:44;;;;;;;;;;;;;;;;;;4974859;28;19949;-61
2020/12/08 12:03:27;;;;;;;;;;;;;;;;;;4973965;28;19926;-91
2020/12/08 12:05:56;;;;;;;;;;;;;;;;;;4983667;28;19933;-90
2020/12/08 12:08:24;;;;;;;;;;;;;;;;;;4982965;28;20348;-91
2020/12/08 12:10:52;;;;;;;;;;;;;;;;;;4975946;28;20478;-91
2020/12/08 12:13:23;;;;;;;;;;;;;;;;;;4986384;28;19945;-91
2020/12/08 12:15:51;;;;;;;;;;;;;;;;;;4973086;28;20020;-91
2020/12/08 12:18:19;;;;;;;;;;;;;;;;;;4965555;28;19953;-87
2020/12/08 12:20:47;;;;;;;;;;;;;;;;;;4969091;28;21014;-89
2020/12/08 12:23:15;;;;;;;;;;;;;;;;;;4983967;28;19926;-88
2020/12/08 12:25:43;;;;;;;;;;;;;;;;;;4985863;28;19926;-88
2020/12/08 12:28:11;;;;;;;;;;;;;;;;;;4978096;28;20372;-89
2020/12/08 12:30:42;;;;;;;;;;;;;;;;;;4978275;28;20086;-89
2020/12/08 12:33:12;;;;;;;;;;;;;;;;;;4975436;28;19930;-89
2020/12/08 12:35:54;;;;;;;;;;;;;;;;;;4981343;28;19977;-90
2020/12/08 12:38:24;;;;;;;;;;;;;;;;;;4978158;28;19937;-89
2020/12/08 12:40:55;;;;;;;;;;;;;;;;;;4984735;28;19934;-89
2020/12/08 12:43:34;;;;;;;;;;;;;;;;;;4990908;28;19972;-89
2020/12/08 12:46:02;;;;;;;;;;;;;;;;;;4984195;28;20003;-89
2020/12/08 12:48:33;;;;;;;;;;;;;;;;;;4984051;28;19989;-89
2020/12/08 12:51:02;;;;;;;;;;;;;;;;;;4983042;28;19950;-89
2020/12/08 12:53:30;;;;;;;;;;;;;;;;;;4976792;28;19945;-88
2020/12/08 12:56:00;;;;;;;;;;;;;;;;;;4979397;28;19977;-88
2020/12/08 12:58:28;;;;;;;;;;;;;;;;;;4983032;28;19942;-89
2020/12/08 13:00:56;;;;;;;;;;;;;;;;;;4980549;28;19926;-88
2020/12/08 13:03:32;;;;;;;;;;;;;;;;;;4960950;29;19926;-88
2020/12/08 13:06:00;;;;;;;;;;;;;;;;;;4968241;28;19976;-88
2020/12/08 13:08:29;;;;;;;;;;;;;;;;;;4965368;29;20063;-87
2020/12/08 13:10:56;;;;;;;;;;;;;;;;;;4971044;29;19937;-88
2020/12/08 13:13:24;;;;;;;;;;;;;;;;;;4968164;29;19974;-89
2020/12/08 13:15:53;;;;;;;;;;;;;;;;;;4963396;29;20003;-88
2020/12/08 13:18:22;;;;;;;;;;;;;;;;;;4966242;29;19934;-88
2020/12/08 13:20:49;;;;;;;;;;;;;;;;;;4957082;28;19942;-89
2020/12/08 13:23:17;;;;;;;;;;;;;;;;;;4965793;29;19926;-89
2020/12/08 13:25:59;;;;;;;;;;;;;;;;;;4955916;29;19982;-89
2020/12/08 13:28:31;;;;;;;;;;;;;;;;;;4965333;29;19961;-91
2020/12/08 13:31:00;;;;;;;;;;;;;;;;;;4956486;29;19926;-89
2020/12/08 13:33:29;;;;;;;;;;;;;;;;;;4964622;29;19997;-89
2020/12/08 13:35:57;;;;;;;;;;;;;;;;;;4964408;29;19926;-91
2020/12/08 13:38:26;;;;;;;;;;;;;;;;;;4962025;29;20051;-89
2020/12/08 13:40:56;;;;;;;;;;;;;;;;;;4962233;29;19941;-89
2020/12/08 13:43:24;;;;;;;;;;;;;;;;;;4963488;29;19930;-88
2020/12/08 13:45:52;;;;;;;;;;;;;;;;;;4963114;29;19953;-89
2020/12/08 13:48:23;;;;;;;;;;;;;;;;;;4961562;29;19962;-91
2020/12/08 13:50:52;;;;;;;;;;;;;;;;;;4963416;29;19989;-90
2020/12/08 13:53:20;;;;;;;;;;;;;;;;;;4963618;29;19974;-90
2020/12/08 13:55:50;;;;;;;;;;;;;;;;;;4963294;29;19965;-89
2020/12/08 13:58:26;;;;;;;;;;;;;;;;;;4964932;28;20013;-89
2020/12/08 14:00:54;;;;;;;;;;;;;;;;;;4946319;29;19934;-89
2020/12/08 14:03:24;;;;;;;;;;;;;;;;;;4960954;29;19937;-89
2020/12/08 14:05:54;;;;;;;;;;;;;;;;;;4959671;29;19931;-89
2020/12/08 14:08:22;;;;;;;;;;;;;;;;;;4958775;28;20017;-89
2020/12/08 14:10:53;;;;;;;;;;;;;;;;;;4958626;29;19926;-89
2020/12/08 14:13:22;;;;;;;;;;;;;;;;;;4965254;28;19931;-90
2020/12/08 14:15:51;;;;;;;;;;;;;;;;;;4958315;29;19926;-89
2020/12/08 14:18:24;;;;;;;;;;;;;;;;;;4961157;29;19974;-91
2020/12/08 14:20:52;;;;;;;;;;;;;;;;;;4960518;28;19940;-90
2020/12/08 14:23:31;;;;;;;;;;;;;;;;;;4956559;29;19930;-89
2020/12/08 14:26:01;;;;;;;;;;;;;;;;;;4959700;29;19989;-92
2020/12/08 14:28:29;;;;;;;;;;;;;;;;;;4959058;29;19939;-89
2020/12/08 14:31:08;;;;;;;;;;;;;;;;;;4967491;28;19930;-90
2020/12/08 14:33:36;;;;;;;;;;;;;;;;;;4964500;29;19965;-89
2020/12/08 14:36:14;;;;;;;;;;;;;;;;;;4964960;29;19927;-89
2020/12/08 14:38:42;;;;;;;;;;;;;;;;;;4963417;29;19934;-90
2020/12/08 14:41:21;;;;;;;;;;;;;;;;;;4957485;29;19931;-90
2020/12/08 14:43:57;;;;;;;;;;;;;;;;;;4959942;29;19942;-90
2020/12/08 14:46:25;;;;;;;;;;;;;;;;;;4960988;29;19931;-89
2020/12/08 14:49:01;;;;;;;;;;;;;;;;;;4964767;29;19961;-89
2020/12/08 14:51:33;;;;;;;;;;;;;;;;;;4965281;29;19926;-90
2020/12/08 14:54:01;;;;;;;;;;;;;;;;;;4961194;29;19932;-90
2020/12/08 14:56:30;;;;;;;;;;;;;;;;;;4955358;29;19933;-89
2020/12/08 14:59:10;;;;;;;;;;;;;;;;;;4962592;29;20853;-90
2020/12/08 15:01:37;;;;;;;;;;;;;;;;;;4961437;29;20014;-89
2020/12/08 15:04:09;;;;;;;;;;;;;;;;;;4965617;29;19926;-89
2020/12/08 15:10:09;;;;;;;;;;;;;;;;;;4966482;29;20025;-89
2020/12/08 15:13:19;;;;;;;;;;;;;;;;;;4955437;29;19966;-88
2020/12/08 15:16:06;;;;;;;;;;;;;;;;;;4966379;29;19934;-88
2020/12/08 15:18:35;;;;;;;;;;;;;;;;;;4953380;29;19931;-89
2020/12/08 15:21:02;;;;;;;;;;;;;;;;;;4952709;28;20379;-89
2020/12/08 15:23:30;;;;;;;;;;;;;;;;;;4937920;29;20442;-88
2020/12/08 15:25:57;;;;;;;;;;;;;;;;;;4953964;29;19982;-87
2020/12/08 15:31:31;;;;;;;;;;;;;;;;;;4958111;29;19935;-87
2020/12/08 15:34:24;;;;;;;;;;;;;;;;;;4960255;29;19950;-88
2020/12/08 15:36:52;;;;;;;;;;;;;;;;;;4968315;29;19926;-88
2020/12/08 15:39:20;;;;;;;;;;;;;;;;;;4962934;29;19942;-87
2020/12/08 15:41:48;;;;;;;;;;;;;;;;;;4963031;29;19926;-88
2020/12/08 15:44:15;;;;;;;;;;;;;;;;;;4950220;29;19935;-90
2020/12/08 15:46:43;;;;;;;;;;;;;;;;;;4945583;29;19936;-90
2020/12/08 15:49:18;;;;;;;;;;;;;;;;;;4974277;29;20017;-91
2020/12/08 15:51:47;;;;;;;;;;;;;;;;;;4965361;29;19930;-90
2020/12/08 16:03:54;;;;;;;;;;;;;;;;;;4969708;29;20038;-90
2020/12/08 16:12:58;;;;;;;;;;;;;;;;;;4965013;29;19930;-91
2020/12/08 16:15:43;;;;;;;;;;;;;;;;;;4919381;29;20339;-91
2020/12/08 16:18:25;;;;;;;;;;;;;;;;;;4964026;29;20029;-91
2020/12/08 16:20:59;;;;;;;;;;;;;;;;;;4965719;28;19949;-92
2020/12/08 16:23:27;;;;;;;;;;;;;;;;;;4963045;28;19937;-91
2020/12/08 16:25:56;;;;;;;;;;;;;;;;;;4966304;29;19965;-90
2020/12/08 16:28:37;;;;;;;;;;;;;;;;;;4963562;29;19927;-91
2020/12/08 16:31:21;;;;;;;;;;;;;;;;;;4944209;29;19934;-89
2020/12/08 16:33:57;;;;;;;;;;;;;;;;;;4963337;29;20021;-87
2020/12/08 16:39:56;;;;;;;;;;;;;;;;;;4966033;29;19922;-89
2020/12/08 16:52:07;;;;;;;;;;;;;;;;;;4934099;29;19922;-87
2020/12/08 16:54:41;;;;;;;;;;;;;;;;;;4909664;29;19915;-88
2020/12/08 17:02:54;;;;;;;;;;;;;;;;;;5582637;23;20600;-64
2020/12/08 17:05:22;;;;;;;;;;;;;;;;;;4972484;28;20369;-65
2020/12/08 17:07:49;;;;;;;;;;;;;;;;;;4972885;28;19993;-64
2020/12/08 17:10:16;;;;;;;;;;;;;;;;;;4970751;28;19929;-64
2020/12/08 17:12:43;;;;;;;;;;;;;;;;;;4971501;28;19929;-65
2020/12/08 17:15:11;;;;;;;;;;;;;;;;;;4972381;28;20020;-63
2020/12/08 17:17:39;;;;;;;;;;;;;;;;;;4973362;28;19926;-64
2020/12/08 17:20:06;;;;;;;;;;;;;;;;;;4969416;28;19930;-63
2020/12/08 17:22:34;;;;;;;;;;;;;;;;;;4971098;28;21212;-64
2020/12/08 17:25:01;;;;;;;;;;;;;;;;;;4971601;28;19933;-65
2020/12/08 17:27:29;;;;;;;;;;;;;;;;;;4971175;28;19926;-64
2020/12/08 17:29:56;;;;;;;;;;;;;;;;;;4971224;28;19934;-64
2020/12/08 17:32:23;;;;;;;;;;;;;;;;;;4969020;28;19984;-65
2020/12/08 17:34:51;;;;;;;;;;;;;;;;;;4971557;28;19933;-64
2020/12/08 17:37:18;;;;;;;;;;;;;;;;;;4972657;28;19933;-67
2020/12/08 17:39:45;;;;;;;;;;;;;;;;;;4970109;28;20016;-64